Time;durP1;ratioP1;P1;durP2;ratioP2;P2;SDS_P1;SDS_P2;PMS_P1;PMS_P2;Temp;Humidity;BMP_temperature;BMP_pressure;BME280_temperature;BME280_humidity;BME280_pressure;Samples;Min_cycle;Max_cycle;Signal;HPM_P1;HPM_P2
2022/11/21 00:01:20;;;;;;;0.10;0.10;;;4.00;99.90;2.70;95616.00;;;;5012592;28;20246;-73
2022/11/21 00:03:48;;;;;;;0.10;0.10;;;4.00;99.90;2.70;95610.00;;;;5012555;28;20216;-73
2022/11/21 00:06:18;;;;;;;0.10;0.10;;;4.00;99.90;2.70;95640.00;;;;5012466;28;20762;-73
2022/11/21 00:08:47;;;;;;;0.10;0.10;;;4.00;99.90;2.80;95606.00;;;;5012237;28;20225;-73
2022/11/21 00:11:15;;;;;;;0.10;0.10;;;4.00;99.90;2.80;95606.00;;;;5012384;28;20962;-74
2022/11/21 00:13:44;;;;;;;0.10;0.10;;;4.00;99.90;2.80;95610.00;;;;5012330;28;20262;-75
2022/11/21 00:16:15;;;;;;;0.10;0.10;;;4.00;99.90;2.80;95595.00;;;;5012286;28;20187;-73
2022/11/21 00:18:43;;;;;;;0.10;0.10;;;4.00;99.90;2.80;95606.00;;;;5012183;28;20257;-73
2022/11/21 00:21:14;;;;;;;0.10;0.10;;;4.10;99.90;2.80;95528.00;;;;5012184;28;20192;-74
2022/11/21 00:23:45;;;;;;;0.10;0.10;;;4.00;99.90;2.80;95595.00;;;;5012209;28;20219;-73
2022/11/21 00:26:15;;;;;;;0.10;0.10;;;4.10;99.90;2.70;95595.00;;;;5012176;28;20246;-73
2022/11/21 00:28:44;;;;;;;0.10;0.10;;;4.00;99.90;2.70;95591.00;;;;5011718;28;20219;-73
2022/11/21 00:31:20;;;;;;;0.10;0.10;;;3.90;99.90;2.70;95591.00;;;;5012275;28;20192;-73
2022/11/21 00:33:48;;;;;;;0.10;0.10;;;3.90;99.90;2.60;95574.00;;;;5012074;28;20637;-74
2022/11/21 00:36:16;;;;;;;0.10;0.10;;;3.90;99.90;2.60;95560.00;;;;5012084;28;20545;-73
2022/11/21 00:38:46;;;;;;;0.10;0.10;;;3.90;99.90;2.60;95553.00;;;;5011761;28;20530;-73
2022/11/21 00:41:14;;;;;;;0.10;0.10;;;3.80;99.90;2.60;95565.00;;;;5012087;28;20195;-73
2022/11/21 00:43:42;;;;;;;0.05;0.05;;;3.90;99.90;2.60;95547.00;;;;5011928;28;20211;-73
2022/11/21 00:46:10;;;;;;;0.10;0.10;;;3.80;99.90;2.60;95554.00;;;;5012119;28;20195;-73
2022/11/21 00:48:38;;;;;;;0.00;0.00;;;3.80;99.90;2.60;95539.00;;;;5011646;28;20254;-73
2022/11/21 00:51:06;;;;;;;0.10;0.10;;;3.90;99.90;2.60;95553.00;;;;5011949;28;20195;-73
2022/11/21 00:53:34;;;;;;;0.10;0.10;;;3.90;99.90;2.60;95543.00;;;;5012332;28;20266;-73
2022/11/21 00:56:04;;;;;;;0.10;0.10;;;3.90;99.90;2.60;95549.00;;;;5012262;28;20668;-74
2022/11/21 00:58:32;;;;;;;0.10;0.10;;;3.90;99.90;2.60;95551.00;;;;5011878;28;20238;-73
2022/11/21 01:01:06;;;;;;;0.10;0.10;;;3.80;99.90;2.50;95562.00;;;;5011872;28;20503;-73
2022/11/21 01:03:35;;;;;;;0.10;0.10;;;3.80;99.90;2.60;95557.00;;;;5014965;28;20215;-75
2022/11/21 01:06:06;;;;;;;0.10;0.10;;;3.80;99.90;2.60;95510.00;;;;5030713;28;20652;-76
2022/11/21 01:08:37;;;;;;;0.10;0.10;;;3.90;99.90;2.60;95544.00;;;;5015260;28;20211;-76
2022/11/21 01:11:09;;;;;;;0.10;0.10;;;3.80;99.90;2.50;95537.00;;;;5015429;28;20188;-76
2022/11/21 01:13:38;;;;;;;0.10;0.10;;;3.80;99.90;2.50;95545.00;;;;5015558;28;20216;-76
2022/11/21 01:16:08;;;;;;;0.10;0.10;;;3.80;99.90;2.50;95523.00;;;;5015371;28;20199;-76
2022/11/21 01:18:37;;;;;;;0.10;0.10;;;3.80;99.90;2.50;95544.00;;;;5015276;28;20667;-76
2022/11/21 01:21:08;;;;;;;0.10;0.10;;;3.80;99.90;2.30;95554.00;;;;5015292;28;20671;-76
2022/11/21 01:23:36;;;;;;;0.10;0.10;;;3.70;99.90;2.50;95532.00;;;;5015396;28;20207;-76
2022/11/21 01:26:10;;;;;;;0.10;0.10;;;3.70;99.90;2.40;95547.00;;;;5015525;28;20188;-76
2022/11/21 01:28:38;;;;;;;0.10;0.10;;;3.70;99.90;2.40;95533.00;;;;5016395;28;20764;-76
2022/11/21 01:31:09;;;;;;;0.10;0.10;;;3.70;99.90;2.40;95528.00;;;;5015532;28;20200;-76
2022/11/21 01:33:38;;;;;;;0.10;0.10;;;3.70;99.90;2.50;95557.00;;;;5015329;28;20246;-76
2022/11/21 01:36:12;;;;;;;0.10;0.10;;;3.70;99.90;2.40;95540.00;;;;5015335;28;20196;-76
2022/11/21 01:38:42;;;;;;;0.10;0.10;;;3.70;99.90;2.50;95530.00;;;;5015036;28;20250;-76
2022/11/21 01:41:14;;;;;;;0.10;0.10;;;3.70;99.90;2.50;95519.00;;;;5015039;28;20187;-76
2022/11/21 01:43:42;;;;;;;0.10;0.10;;;3.80;99.90;2.50;95521.00;;;;5014995;28;20239;-76
2022/11/21 01:46:14;;;;;;;0.10;0.10;;;3.80;99.90;2.60;95538.00;;;;5014769;28;20192;-76
2022/11/21 01:48:49;;;;;;;0.10;0.10;;;3.80;99.90;2.60;95516.00;;;;5018467;28;20221;-76
2022/11/21 01:51:26;;;;;;;0.10;0.10;;;3.90;99.90;2.70;95510.00;;;;5030518;28;20191;-76
2022/11/21 01:53:59;;;;;;;0.10;0.10;;;3.90;99.90;2.70;95439.00;;;;5014758;28;20219;-76
2022/11/21 01:56:35;;;;;;;0.10;0.10;;;4.00;99.90;2.80;95496.00;;;;5014964;28;20208;-76
2022/11/21 01:59:05;;;;;;;0.08;0.08;;;4.00;99.90;2.80;95496.00;;;;5014491;28;20203;-76
2022/11/21 02:01:35;;;;;;;0.10;0.10;;;4.00;99.90;2.80;95502.00;;;;5014630;28;20184;-76
2022/11/21 02:04:06;;;;;;;0.10;0.10;;;4.10;99.90;2.80;95492.00;;;;5014610;28;20621;-76
2022/11/21 02:06:37;;;;;;;0.10;0.10;;;4.10;99.90;2.90;95490.00;;;;5014706;28;20623;-76
2022/11/21 02:09:07;;;;;;;0.10;0.10;;;4.10;99.90;2.90;95497.00;;;;5014673;28;20560;-76
2022/11/21 02:11:44;;;;;;;0.10;0.10;;;4.20;99.90;2.90;95488.00;;;;5015871;28;20188;-76
2022/11/21 02:14:12;;;;;;;0.10;0.10;;;4.20;99.90;2.90;95488.00;;;;5014079;28;20219;-76
2022/11/21 02:16:41;;;;;;;0.10;0.10;;;4.20;99.90;3.00;95486.00;;;;5015478;28;20276;-76
2022/11/21 02:19:20;;;;;;;0.03;0.03;;;4.20;99.90;3.00;95500.00;;;;5014891;28;20196;-76
2022/11/21 02:21:59;;;;;;;0.10;0.10;;;4.20;99.90;3.00;95458.00;;;;5015051;28;20328;-76
2022/11/21 02:24:38;;;;;;;0.10;0.10;;;4.30;99.90;3.10;95459.00;;;;5015115;28;20570;-76
2022/11/21 02:27:07;;;;;;;0.10;0.10;;;4.30;99.90;3.10;95463.00;;;;5014202;28;20246;-76
2022/11/21 02:29:36;;;;;;;0.10;0.10;;;4.40;99.90;3.10;95452.00;;;;5013859;28;20243;-76
2022/11/21 02:32:05;;;;;;;0.10;0.10;;;4.40;99.90;3.20;95478.00;;;;5014087;28;20184;-76
2022/11/21 02:34:33;;;;;;;0.10;0.10;;;4.40;99.90;3.20;95465.00;;;;5014052;28;20208;-76
2022/11/21 02:37:02;;;;;;;0.10;0.10;;;4.50;99.90;3.30;95486.00;;;;5013893;28;20195;-76
2022/11/21 02:39:36;;;;;;;0.10;0.10;;;4.50;99.90;3.30;95460.00;;;;5013749;28;20678;-76
2022/11/21 02:42:14;;;;;;;0.10;0.10;;;4.60;99.90;3.40;95473.00;;;;5013841;28;20191;-76
2022/11/21 02:44:51;;;;;;;0.10;0.10;;;4.60;99.90;3.40;95489.00;;;;5013959;28;20215;-76
2022/11/21 02:47:21;;;;;;;0.10;0.10;;;4.60;99.90;3.40;95463.00;;;;5013673;28;20654;-76
2022/11/21 02:49:58;;;;;;;0.10;0.10;;;4.60;99.90;3.40;95447.00;;;;5013759;28;20211;-76
2022/11/21 02:52:26;;;;;;;0.10;0.10;;;4.70;99.90;3.40;95450.00;;;;5013876;28;20663;-76
2022/11/21 02:54:54;;;;;;;0.10;0.10;;;4.60;99.90;3.30;95432.00;;;;5013528;28;20242;-76
2022/11/21 02:57:23;;;;;;;0.10;0.10;;;4.60;99.90;3.30;95432.00;;;;5013382;28;20192;-76
2022/11/21 02:59:51;;;;;;;0.10;0.10;;;4.60;99.90;3.30;95440.00;;;;5013719;28;20192;-76
2022/11/21 03:02:19;;;;;;;0.10;0.10;;;4.60;99.90;3.30;95442.00;;;;5013462;28;20250;-76
2022/11/21 03:04:47;;;;;;;0.10;0.10;;;4.50;99.90;3.30;95438.00;;;;5013506;28;20663;-76
2022/11/21 03:07:16;;;;;;;0.10;0.10;;;4.60;99.90;3.30;95434.00;;;;5013371;28;20188;-76
2022/11/21 03:09:44;;;;;;;0.10;0.10;;;4.60;99.90;3.20;95436.00;;;;5013161;28;20208;-76
2022/11/21 03:12:12;;;;;;;0.10;0.10;;;4.50;99.90;3.30;95439.00;;;;5013136;28;20663;-76
2022/11/21 03:14:42;;;;;;;0.10;0.10;;;4.60;99.90;3.30;95445.00;;;;5013198;28;20207;-76
2022/11/21 03:17:10;;;;;;;0.10;0.10;;;4.60;99.90;3.30;95462.00;;;;5013285;28;20555;-76
2022/11/21 03:19:38;;;;;;;0.10;0.10;;;4.60;99.90;3.40;95471.00;;;;5012967;28;20195;-76
2022/11/21 03:22:06;;;;;;;0.10;0.10;;;4.60;99.90;3.40;95440.00;;;;5013136;28;20192;-76
2022/11/21 03:24:34;;;;;;;0.10;0.10;;;4.60;99.90;3.40;95438.00;;;;5013122;28;20631;-76
2022/11/21 03:27:02;;;;;;;0.10;0.10;;;4.60;99.90;3.40;95440.00;;;;5013141;28;20196;-76
2022/11/21 03:29:30;;;;;;;0.10;0.10;;;4.70;99.90;3.40;95444.00;;;;5012719;28;20222;-77
2022/11/21 03:32:00;;;;;;;0.10;0.10;;;4.70;99.90;3.40;95444.00;;;;5013268;28;20246;-76
2022/11/21 03:34:28;;;;;;;0.10;0.10;;;4.70;99.90;3.40;95443.00;;;;5013506;28;20219;-76
2022/11/21 03:36:56;;;;;;;0.10;0.10;;;4.60;99.90;3.40;95419.00;;;;5013063;28;20198;-76
2022/11/21 03:39:24;;;;;;;0.10;0.10;;;4.70;99.90;3.40;95441.00;;;;5012719;28;20196;-76
2022/11/21 03:41:53;;;;;;;0.10;0.10;;;4.70;99.90;3.40;95437.00;;;;5034823;28;20257;-76
2022/11/21 03:44:21;;;;;;;0.03;0.03;;;4.60;99.90;3.40;95454.00;;;;5032403;28;20214;-76
2022/11/21 03:46:49;;;;;;;0.00;0.00;;;4.60;99.90;3.40;95441.00;;;;5032786;28;20218;-76
2022/11/21 03:49:18;;;;;;;0.10;0.10;;;4.70;99.90;3.40;95440.00;;;;5032239;28;20202;-76
2022/11/21 03:51:46;;;;;;;0.10;0.10;;;4.60;99.90;3.40;95436.00;;;;5032422;28;20222;-76
2022/11/21 03:54:15;;;;;;;0.10;0.10;;;4.70;99.90;3.50;95429.00;;;;5032183;28;20234;-76
2022/11/21 03:56:43;;;;;;;0.10;0.10;;;4.70;99.90;3.50;95438.00;;;;5032491;28;20187;-76
2022/11/21 03:59:11;;;;;;;0.10;0.10;;;4.70;99.90;3.50;95425.00;;;;5032035;28;20191;-76
2022/11/21 04:01:39;;;;;;;0.10;0.10;;;4.70;99.90;3.40;95392.00;;;;5032379;28;20195;-76
2022/11/21 04:04:07;;;;;;;0.10;0.10;;;4.70;99.90;3.50;95397.00;;;;5032341;28;20219;-76
2022/11/21 04:06:37;;;;;;;0.10;0.10;;;4.80;99.90;3.50;95396.00;;;;5032224;28;20187;-76
2022/11/21 04:09:05;;;;;;;0.05;0.05;;;4.70;99.90;3.50;95395.00;;;;5031814;28;20253;-76
2022/11/21 04:11:33;;;;;;;0.10;0.10;;;4.70;99.90;3.50;95407.00;;;;5032054;28;20222;-76
2022/11/21 04:14:01;;;;;;;0.10;0.10;;;4.70;99.90;3.50;95395.00;;;;5031958;28;20772;-76
2022/11/21 04:16:29;;;;;;;0.10;0.10;;;4.80;99.90;3.50;95402.00;;;;5031183;28;20199;-76
2022/11/21 04:18:57;;;;;;;0.10;0.10;;;4.80;99.90;3.60;95406.00;;;;5023146;28;20200;-76
2022/11/21 04:21:25;;;;;;;0.10;0.10;;;4.80;99.90;3.60;95438.00;;;;5012337;28;20246;-76
2022/11/21 04:23:54;;;;;;;0.10;0.10;;;4.80;99.90;3.60;95437.00;;;;5024430;28;20706;-76
2022/11/21 04:26:22;;;;;;;0.10;0.10;;;4.90;99.90;3.60;95425.00;;;;5024132;28;20261;-76
2022/11/21 04:28:50;;;;;;;0.00;0.00;;;4.90;99.90;3.60;95448.00;;;;5031630;28;20253;-76
2022/11/21 04:31:19;;;;;;;0.03;0.03;;;4.90;99.90;3.60;95444.00;;;;5032213;28;20219;-76
2022/11/21 04:33:47;;;;;;;0.10;0.10;;;4.80;99.90;3.60;95431.00;;;;5031980;28;20654;-76
2022/11/21 04:36:15;;;;;;;0.10;0.10;;;4.80;99.90;3.60;95410.00;;;;5032217;28;20183;-76
2022/11/21 04:38:43;;;;;;;0.10;0.10;;;4.80;99.90;3.60;95432.00;;;;5031145;28;20191;-76
2022/11/21 04:41:12;;;;;;;0.10;0.10;;;4.80;99.90;3.70;95451.00;;;;5031735;28;20187;-76
2022/11/21 04:43:40;;;;;;;0.10;0.10;;;4.90;99.90;3.60;95440.00;;;;5031534;28;20625;-76
2022/11/21 04:46:08;;;;;;;0.10;0.10;;;4.90;99.90;3.60;95445.00;;;;5030902;28;20198;-76
2022/11/21 04:48:36;;;;;;;0.10;0.10;;;4.90;99.90;3.60;95446.00;;;;5031626;28;20191;-77
2022/11/21 04:51:04;;;;;;;0.10;0.10;;;4.90;99.90;3.70;95449.00;;;;5028947;28;20286;-76
2022/11/21 04:53:32;;;;;;;0.10;0.10;;;4.90;99.90;3.60;95463.00;;;;5011777;28;20208;-75
2022/11/21 04:56:07;;;;;;;0.10;0.10;;;4.90;99.90;3.60;95450.00;;;;5011891;28;20202;-75
2022/11/21 04:58:37;;;;;;;0.10;0.10;;;4.90;99.90;3.60;95446.00;;;;5011798;28;20188;-75
2022/11/21 05:01:09;;;;;;;0.10;0.10;;;4.80;99.90;3.10;94240.00;;;;5029888;28;20199;-75
2022/11/21 05:03:37;;;;;;;0.10;0.10;;;4.80;99.90;3.60;95428.00;;;;5011839;28;20212;-75
2022/11/21 05:06:05;;;;;;;0.10;0.10;;;4.80;99.90;3.60;95405.00;;;;5011724;28;20198;-75
2022/11/21 05:08:33;;;;;;;0.10;0.10;;;4.80;99.90;3.50;95353.00;;;;5012606;28;20195;-75
2022/11/21 05:13:48;;;;;;;0.10;0.10;;;4.80;99.90;3.50;95377.00;;;;5011670;28;20220;-75
2022/11/21 05:16:20;;;;;;;0.10;0.10;;;4.80;99.90;3.50;95365.00;;;;5011836;28;20254;-76
2022/11/21 05:18:48;;;;;;;0.10;0.10;;;4.80;99.90;3.50;95360.00;;;;5014808;28;20191;-75
2022/11/21 05:21:16;;;;;;;0.10;0.10;;;4.80;99.90;3.50;95364.00;;;;5028061;28;20199;-75
2022/11/21 05:23:44;;;;;;;0.10;0.10;;;4.80;99.90;3.50;95371.00;;;;5011660;28;20262;-75
2022/11/21 05:26:12;;;;;;;0.10;0.10;;;4.80;99.90;3.50;95439.00;;;;5011337;28;20238;-75
2022/11/21 05:28:40;;;;;;;0.10;0.10;;;4.80;99.90;3.40;95357.00;;;;5011229;28;20207;-76
2022/11/21 05:31:10;;;;;;;0.10;0.10;;;4.80;99.90;3.50;95419.00;;;;5011490;28;20215;-75
2022/11/21 05:33:38;;;;;;;0.10;0.10;;;4.80;99.90;3.50;95411.00;;;;5011387;28;20215;-75
2022/11/21 05:36:06;;;;;;;0.10;0.10;;;4.80;99.90;3.50;95437.00;;;;5011654;28;20188;-75
2022/11/21 05:38:34;;;;;;;0.10;0.10;;;4.80;99.90;3.60;95445.00;;;;5011310;28;20828;-76
2022/11/21 05:41:02;;;;;;;0.08;0.08;;;4.80;99.90;3.50;95449.00;;;;5022784;28;20226;-75
2022/11/21 05:43:45;;;;;;;0.10;0.10;;;4.80;99.90;3.50;95445.00;;;;5017898;28;20212;-75
2022/11/21 05:46:17;;;;;;;0.00;0.00;;;4.80;99.90;3.60;95453.00;;;;5011351;28;20231;-75
2022/11/21 05:48:47;;;;;;;0.10;0.10;;;4.80;99.90;3.60;95463.00;;;;5010957;28;20663;-75
2022/11/21 05:51:15;;;;;;;0.10;0.10;;;4.80;99.90;3.50;95374.00;;;;5014961;28;20277;-76
2022/11/21 05:53:47;;;;;;;0.10;0.10;;;4.80;99.90;3.60;95480.00;;;;5015355;28;20254;-76
2022/11/21 05:56:17;;;;;;;0.10;0.10;;;4.80;99.90;3.60;95448.00;;;;5015116;28;20246;-76
2022/11/21 05:58:46;;;;;;;0.10;0.10;;;4.80;99.90;3.60;95485.00;;;;5014721;28;20203;-76
2022/11/21 06:03:25;;;;;;;0.10;0.10;;;4.80;99.90;3.60;95469.00;;;;5015186;28;20699;-76
2022/11/21 06:04:03;;;;;;;0.10;0.10;;;4.80;99.90;3.60;95467.00;;;;5014604;28;20624;-77
2022/11/21 06:06:31;;;;;;;0.10;0.10;;;4.80;99.90;3.60;95482.00;;;;5014686;28;20257;-76
2022/11/21 06:08:59;;;;;;;0.10;0.10;;;4.90;99.90;3.50;95488.00;;;;5015596;28;20269;-76
2022/11/21 06:11:28;;;;;;;0.10;0.10;;;4.80;99.90;3.30;95405.00;;;;5014750;28;20222;-76
2022/11/21 06:13:56;;;;;;;0.10;0.10;;;4.80;99.90;3.20;95463.00;;;;5015108;28;20273;-77
2022/11/21 06:16:25;;;;;;;0.10;0.10;;;4.60;99.90;3.20;95415.00;;;;5014226;28;20200;-76
2022/11/21 06:18:53;;;;;;;0.10;0.10;;;4.60;99.90;3.30;95467.00;;;;5013695;28;20717;-77
2022/11/21 06:21:28;;;;;;;0.10;0.10;;;4.60;99.90;3.40;95446.00;;;;5013964;28;20250;-77
2022/11/21 06:23:58;;;;;;;0.10;0.10;;;4.70;99.90;3.30;95434.00;;;;5014051;28;20258;-77
2022/11/21 06:26:27;;;;;;;0.10;0.10;;;4.70;99.90;3.20;95527.00;;;;5013667;28;20192;-76
2022/11/21 06:28:55;;;;;;;0.00;0.00;;;4.60;99.90;3.20;95543.00;;;;5013829;28;20199;-77
2022/11/21 06:31:27;;;;;;;0.10;0.10;;;4.50;99.90;3.10;95547.00;;;;5013920;28;20231;-76
2022/11/21 06:33:57;;;;;;;0.10;0.10;;;4.50;99.90;3.20;95552.00;;;;5014251;28;20266;-77
2022/11/21 06:36:26;;;;;;;0.10;0.10;;;4.50;99.90;3.20;95556.00;;;;5014371;28;20188;-76
2022/11/21 06:38:56;;;;;;;0.10;0.10;;;4.40;99.90;3.10;95493.00;;;;5013761;28;20191;-77
2022/11/21 06:41:29;;;;;;;0.10;0.10;;;4.40;99.90;3.00;95552.00;;;;5014187;28;20192;-77
2022/11/21 06:44:00;;;;;;;0.10;0.10;;;4.30;99.90;2.80;95433.00;;;;5013813;28;20583;-76
2022/11/21 06:46:30;;;;;;;0.10;0.10;;;4.20;99.90;2.90;95516.00;;;;5013818;28;20191;-76
2022/11/21 06:48:58;;;;;;;0.10;0.10;;;4.30;99.90;2.80;95571.00;;;;5013393;28;20683;-76
2022/11/21 06:51:26;;;;;;;0.10;0.10;;;4.20;99.90;2.60;95533.00;;;;5013618;28;20281;-77
2022/11/21 06:53:57;;;;;;;0.10;0.10;;;4.10;99.90;2.60;95572.00;;;;5013353;28;20753;-76
2022/11/21 06:56:26;;;;;;;0.10;0.10;;;4.10;99.90;2.60;95602.00;;;;5014056;28;20656;-77
2022/11/21 06:58:55;;;;;;;0.10;0.10;;;3.90;99.90;2.50;95625.00;;;;5013263;28;20211;-76
2022/11/21 07:01:24;;;;;;;0.10;0.10;;;3.80;99.90;2.50;95605.00;;;;5013090;28;20196;-77
2022/11/21 07:03:54;;;;;;;0.10;0.10;;;3.90;99.90;2.50;95511.00;;;;5013845;28;20695;-75
2022/11/21 07:06:23;;;;;;;0.10;0.10;;;3.90;99.90;2.60;95598.00;;;;5013443;28;20195;-75
2022/11/21 07:08:54;;;;;;;0.10;0.10;;;3.90;99.90;2.50;95636.00;;;;5012895;28;20199;-75
2022/11/21 07:11:42;;;;;;;0.10;0.10;;;3.80;99.90;2.50;95637.00;;;;5012765;28;20307;-75
2022/11/21 07:14:09;;;;;;;0.10;0.10;;;3.80;99.90;2.20;95092.00;;;;5013333;28;20232;-75
2022/11/21 07:16:38;;;;;;;0.10;0.10;;;3.80;99.90;2.40;95652.00;;;;5013128;28;20686;-75
2022/11/21 07:19:07;;;;;;;0.10;0.10;;;3.70;99.90;2.30;95655.00;;;;5012833;28;20556;-75
2022/11/21 07:21:35;;;;;;;0.10;0.10;;;3.70;99.90;2.50;95629.00;;;;5013065;28;20199;-75
2022/11/21 07:24:05;;;;;;;0.10;0.10;;;3.80;99.90;2.50;95660.00;;;;5012954;28;20208;-75
2022/11/21 07:26:33;;;;;;;0.10;0.10;;;3.80;99.90;2.50;95673.00;;;;5013151;28;20207;-76
2022/11/21 07:29:01;;;;;;;0.10;0.10;;;3.80;99.90;2.40;95653.00;;;;5012650;28;20207;-76
2022/11/21 07:31:29;;;;;;;0.10;0.10;;;3.80;99.90;2.40;95674.00;;;;5012910;28;20196;-75
2022/11/21 07:33:57;;;;;;;0.10;0.10;;;3.80;99.90;2.40;95667.00;;;;5012806;28;20216;-75
2022/11/21 07:36:27;;;;;;;0.10;0.10;;;3.80;99.90;2.40;95682.00;;;;5013283;28;20239;-76
2022/11/21 07:38:59;;;;;;;0.10;0.10;;;3.80;99.90;2.30;95669.00;;;;5012481;28;20223;-75
2022/11/21 07:41:27;;;;;;;0.10;0.10;;;3.70;99.90;2.30;95635.00;;;;5013134;28;20261;-75
2022/11/21 07:43:55;;;;;;;0.03;0.03;;;3.70;99.90;2.30;95614.00;;;;5012892;28;20554;-75
2022/11/21 07:46:23;;;;;;;0.10;0.10;;;3.70;99.90;2.50;95695.00;;;;5012928;28;20192;-75
2022/11/21 07:48:51;;;;;;;0.10;0.10;;;3.70;99.90;2.40;95635.00;;;;5012542;28;20200;-76
2022/11/21 07:51:19;;;;;;;0.10;0.10;;;3.70;99.90;2.40;95591.00;;;;5012747;28;20671;-75
2022/11/21 07:53:49;;;;;;;0.10;0.10;;;3.80;99.90;2.40;95571.00;;;;5012286;28;20226;-75
2022/11/21 07:56:17;;;;;;;0.10;0.10;;;3.80;99.90;2.40;95542.00;;;;5012567;28;20681;-76
2022/11/21 07:58:45;;;;;;;0.10;0.10;;;3.90;99.90;2.40;95543.00;;;;5012182;28;20733;-76
2022/11/21 08:01:13;;;;;;;0.10;0.10;;;3.90;99.90;2.50;95576.00;;;;5012541;28;20250;-75
2022/11/21 08:03:41;;;;;;;0.10;0.10;;;3.90;99.90;2.40;95548.00;;;;5016015;28;20306;-74
2022/11/21 08:06:11;;;;;;;0.10;0.10;;;3.90;99.90;2.50;95570.00;;;;5028768;28;20187;-74
2022/11/21 08:08:39;;;;;;;0.10;0.10;;;3.90;99.90;2.40;95463.00;;;;5012331;28;20603;-74
2022/11/21 08:11:09;;;;;;;0.10;0.10;;;3.90;99.90;2.60;95711.00;;;;5012789;28;20213;-74
2022/11/21 08:13:37;;;;;;;0.10;0.10;;;3.80;99.90;2.50;95684.00;;;;5011523;28;20573;-74
2022/11/21 08:16:06;;;;;;;0.10;0.10;;;3.90;99.90;2.50;95702.00;;;;5012399;28;20196;-74
2022/11/21 08:18:34;;;;;;;0.10;0.10;;;3.90;99.90;2.50;95648.00;;;;5012586;28;20230;-74
2022/11/21 08:21:02;;;;;;;0.10;0.10;;;3.90;99.90;2.50;95600.00;;;;5012451;28;20243;-74
2022/11/21 08:23:31;;;;;;;0.10;0.10;;;3.90;99.90;2.50;95700.00;;;;5012680;28;20218;-74
2022/11/21 08:26:00;;;;;;;0.00;0.00;;;3.90;99.90;2.50;95705.00;;;;5012953;28;20207;-74
2022/11/21 08:28:29;;;;;;;0.10;0.10;;;3.80;99.90;2.50;95699.00;;;;5012143;28;20202;-74
2022/11/21 08:30:57;;;;;;;0.10;0.10;;;3.80;99.90;2.50;95701.00;;;;5011755;28;20184;-74
2022/11/21 08:33:26;;;;;;;0.10;0.10;;;3.80;99.90;2.50;95691.00;;;;5012129;28;20318;-74
2022/11/21 08:35:54;;;;;;;0.10;0.10;;;3.90;99.90;2.60;95687.00;;;;5011831;28;20196;-74
2022/11/21 08:38:23;;;;;;;0.10;0.10;;;3.90;99.90;2.80;95673.00;;;;5012052;28;20598;-74
2022/11/21 08:42:01;;;;;;;0.10;0.10;;;4.10;99.90;2.90;95683.00;;;;5011937;28;20538;-74
2022/11/21 08:43:46;;;;;;;0.10;0.10;;;4.20;99.90;3.10;95723.00;;;;5027051;28;20338;-74
2022/11/21 08:46:14;;;;;;;0.10;0.10;;;4.30;99.90;3.10;95717.00;;;;5012064;28;20745;-74
2022/11/21 08:48:42;;;;;;;0.10;0.10;;;4.30;99.90;3.10;95667.00;;;;5011788;28;20215;-75
2022/11/21 08:51:10;;;;;;;0.10;0.10;;;4.40;99.90;3.10;95723.00;;;;5011798;28;20218;-75
2022/11/21 08:53:38;;;;;;;0.10;0.10;;;4.40;99.90;3.20;95724.00;;;;5011978;28;20272;-74
2022/11/21 08:56:06;;;;;;;0.10;0.10;;;4.40;99.90;3.00;95721.00;;;;5013189;28;20192;-74
2022/11/21 08:58:34;;;;;;;0.10;0.10;;;4.30;99.90;3.00;95731.00;;;;5011780;28;20184;-74
2022/11/21 09:01:04;;;;;;;0.10;0.10;;;4.30;99.90;3.00;95730.00;;;;5012108;28;20203;-75
2022/11/21 09:03:32;;;;;;;0.10;0.10;;;4.30;99.90;3.00;95727.00;;;;5012207;28;20215;-75
2022/11/21 09:06:01;;;;;;;0.10;0.10;;;4.30;99.90;3.10;95732.00;;;;5012130;28;20195;-75
2022/11/21 09:08:30;;;;;;;0.10;0.10;;;4.40;99.90;3.10;95733.00;;;;5011690;28;20188;-74
2022/11/21 09:10:58;;;;;;;0.10;0.10;;;4.30;99.90;3.10;95744.00;;;;5011876;28;20192;-74
2022/11/21 09:13:27;;;;;;;0.10;0.10;;;4.40;99.90;3.30;95740.00;;;;5012021;28;20224;-74
2022/11/21 09:18:51;;;;;;;0.10;0.10;;;4.60;99.90;3.40;95760.00;;;;5011757;28;20196;-74
2022/11/21 09:21:21;;;;;;;0.10;0.10;;;4.60;99.90;3.40;95752.00;;;;5011771;28;20565;-73
2022/11/21 09:23:49;;;;;;;0.10;0.10;;;4.60;99.90;3.40;95778.00;;;;5013374;28;20239;-74
2022/11/21 09:26:17;;;;;;;0.10;0.10;;;4.60;99.90;3.30;95772.00;;;;5015821;28;20223;-74
2022/11/21 09:28:45;;;;;;;0.10;0.10;;;4.60;99.90;3.10;95766.00;;;;5015199;28;20207;-74
2022/11/21 09:31:14;;;;;;;0.10;0.10;;;4.40;99.90;3.20;95772.00;;;;5015518;28;20203;-74
2022/11/21 09:33:42;;;;;;;0.10;0.10;;;4.50;99.90;3.20;95773.00;;;;5015515;28;20269;-74
2022/11/21 09:36:11;;;;;;;0.10;0.10;;;4.50;99.90;3.20;95771.00;;;;5015505;28;20200;-74
2022/11/21 09:38:39;;;;;;;0.10;0.10;;;4.50;99.90;3.20;95774.00;;;;5014987;28;20188;-74
2022/11/21 09:44:50;;;;;;;0.10;0.10;;;4.60;99.90;3.30;95780.00;;;;5015472;28;20227;-74
2022/11/21 09:47:25;;;;;;;0.10;0.10;;;4.60;99.90;3.40;95791.00;;;;5015526;28;20611;-73
2022/11/21 09:50:01;;;;;;;0.10;0.10;;;4.60;99.90;3.30;95789.00;;;;5018146;28;20190;-74
2022/11/21 09:52:40;;;;;;;0.10;0.10;;;4.60;99.90;3.20;95765.00;;;;5016604;28;20253;-73
2022/11/21 09:55:27;;;;;;;0.10;0.10;;;4.50;99.90;3.10;95759.00;;;;5016548;28;20219;-73
2022/11/21 09:57:56;;;;;;;0.10;0.10;;;4.50;99.90;3.20;95687.00;;;;5015541;28;20203;-73
2022/11/21 10:00:25;;;;;;;0.10;0.10;;;4.50;99.90;3.30;95766.00;;;;5014714;28;20550;-74
2022/11/21 10:02:55;;;;;;;0.10;0.10;;;4.50;99.90;3.20;95766.00;;;;5014619;28;20231;-73
2022/11/21 10:05:35;;;;;;;0.03;0.03;;;4.50;99.90;3.20;95772.00;;;;5014522;28;20191;-73
2022/11/21 10:08:17;;;;;;;0.10;0.10;;;4.50;99.90;3.10;95789.00;;;;5014289;28;20199;-73
2022/11/21 10:10:55;;;;;;;0.10;0.10;;;4.40;99.90;3.00;95800.00;;;;5014489;28;20191;-73
2022/11/21 10:13:46;;;;;;;0.10;0.10;;;4.40;99.90;3.10;95774.00;;;;5029721;28;20227;-73
2022/11/21 10:16:25;;;;;;;0.10;0.10;;;4.40;99.90;3.20;95710.00;;;;5014725;28;20187;-73
2022/11/21 10:19:34;;;;;;;0.10;0.10;;;4.50;99.90;3.20;95746.00;;;;5014527;28;20195;-73
2022/11/21 10:22:38;;;;;;;0.00;0.00;;;4.50;99.90;3.20;95749.00;;;;5013025;28;20208;-73
2022/11/21 10:25:14;;;;;;;0.10;0.10;;;4.40;99.90;3.20;95753.00;;;;5014508;28;20203;-73
2022/11/21 10:27:51;;;;;;;0.10;0.10;;;4.50;99.90;3.10;95754.00;;;;5014387;28;20278;-74
2022/11/21 10:30:21;;;;;;;0.10;0.10;;;4.40;99.90;3.00;95736.00;;;;5014464;28;20230;-74
2022/11/21 10:32:55;;;;;;;0.10;0.10;;;4.30;99.90;3.00;95738.00;;;;5014821;28;20231;-73
2022/11/21 10:35:29;;;;;;;0.10;0.10;;;4.40;99.90;3.20;95746.00;;;;5014521;28;20673;-73
2022/11/21 10:38:00;;;;;;;0.10;0.10;;;4.50;99.90;3.40;95772.00;;;;5018204;28;20192;-73
2022/11/21 10:40:37;;;;;;;0.10;0.10;;;4.60;99.90;3.60;95749.00;;;;5016947;28;20192;-73
2022/11/21 10:46:04;;;;;;;0.10;0.10;;;4.90;99.90;3.70;95749.00;;;;5014158;28;20234;-73
2022/11/21 10:48:32;;;;;;;0.10;0.10;;;4.90;99.90;3.50;95749.00;;;;5014868;28;20215;-73
2022/11/21 10:51:23;;;;;;;0.10;0.10;;;4.80;99.90;3.40;95743.00;;;;5016591;28;20191;-73
2022/11/21 10:56:54;;;;;;;0.10;0.10;;;4.60;99.90;3.20;95732.00;;;;5013437;28;20196;-73
2022/11/21 10:59:26;;;;;;;0.10;0.10;;;4.50;99.90;3.20;95726.00;;;;5013648;28;20196;-74
2022/11/21 11:02:01;;;;;;;0.10;0.10;;;4.50;99.90;3.40;95722.00;;;;5013399;28;20206;-74
2022/11/21 11:04:31;;;;;;;0.10;0.10;;;4.60;99.90;3.50;95725.00;;;;5013447;28;20703;-74
2022/11/21 11:07:23;;;;;;;0.10;0.10;;;4.70;99.90;3.80;95732.00;;;;5013410;28;20716;-74
2022/11/21 11:09:52;;;;;;;0.10;0.10;;;4.90;99.90;4.00;95749.00;;;;5013316;28;20282;-74
2022/11/21 11:15:20;;;;;;;0.10;0.10;;;5.10;99.90;3.90;95741.00;;;;5013821;28;20239;-74
2022/11/21 11:17:59;;;;;;;0.10;0.10;;;5.00;99.90;3.90;95752.00;;;;5013146;28;20195;-75
2022/11/21 11:20:38;;;;;;;0.10;0.10;;;5.10;99.90;3.90;95756.00;;;;5013275;28;20683;-75
2022/11/21 11:23:27;;;;;;;0.10;0.10;;;5.10;99.90;4.00;95746.00;;;;5013204;28;20246;-74
2022/11/21 11:25:57;;;;;;;0.10;0.10;;;5.20;99.90;4.10;95691.00;;;;5013172;28;20246;-74
2022/11/21 11:28:36;;;;;;;0.10;0.10;;;5.30;99.90;3.90;95732.00;;;;5012869;28;20200;-74
2022/11/21 11:31:04;;;;;;;0.10;0.10;;;5.10;99.90;4.00;95738.00;;;;5012932;28;20551;-74
2022/11/21 11:33:36;;;;;;;0.10;0.10;;;5.20;99.90;4.20;95735.00;;;;5013151;28;20622;-75
2022/11/21 11:36:15;;;;;;;0.10;0.10;;;5.30;99.90;4.10;95706.00;;;;5012908;28;20208;-74
2022/11/21 11:38:52;;;;;;;0.10;0.10;;;5.30;99.90;4.20;95726.00;;;;5013100;28;20601;-75
2022/11/21 11:48:03;;;;;;;0.10;0.10;;;5.50;99.90;4.30;95640.00;;;;5011776;28;20640;-74
2022/11/21 11:50:37;;;;;;;0.10;0.10;;;5.50;99.90;4.30;95672.00;;;;5014582;28;20195;-74